sensor_id;sensor_type;location;lat;lon;timestamp;pressure;altitude;pressure_sealevel;temperature;humidity
11621;BME280;5866;49.094;11.900;2023-04-24T00:02:12;95226.91;;;12.96;100.00
11621;BME280;5866;49.094;11.900;2023-04-24T00:04:40;95226.00;;;13.49;100.00
11621;BME280;5866;49.094;11.900;2023-04-24T00:07:11;95228.25;;;13.59;100.00
11621;BME280;5866;49.094;11.900;2023-04-24T00:09:40;95224.16;;;13.50;100.00
11621;BME280;5866;49.094;11.900;2023-04-24T00:12:09;95220.22;;;13.26;100.00
11621;BME280;5866;49.094;11.900;2023-04-24T00:14:36;95215.75;;;13.46;100.00
11621;BME280;5866;49.094;11.900;2023-04-24T00:17:04;95219.66;;;13.44;100.00
11621;BME280;5866;49.094;11.900;2023-04-24T00:19:32;95209.81;;;13.44;100.00
11621;BME280;5866;49.094;11.900;2023-04-24T00:21:59;95215.13;;;13.57;100.00
11621;BME280;5866;49.094;11.900;2023-04-24T00:24:27;95211.84;;;13.36;100.00
11621;BME280;5866;49.094;11.900;2023-04-24T00:26:56;95213.50;;;13.50;100.00
11621;BME280;5866;49.094;11.900;2023-04-24T00:29:23;95208.56;;;13.53;100.00
11621;BME280;5866;49.094;11.900;2023-04-24T00:31:51;95212.28;;;13.52;100.00
11621;BME280;5866;49.094;11.900;2023-04-24T00:34:19;95215.94;;;13.25;100.00
11621;BME280;5866;49.094;11.900;2023-04-24T00:36:46;95217.38;;;12.67;100.00
11621;BME280;5866;49.094;11.900;2023-04-24T00:39:15;95205.75;;;12.68;100.00
11621;BME280;5866;49.094;11.900;2023-04-24T00:41:43;95212.63;;;13.10;100.00
11621;BME280;5866;49.094;11.900;2023-04-24T00:44:13;95217.97;;;13.10;100.00
11621;BME280;5866;49.094;11.900;2023-04-24T00:46:41;95226.09;;;12.96;100.00
11621;BME280;5866;49.094;11.900;2023-04-24T00:49:09;95217.06;;;13.03;100.00
11621;BME280;5866;49.094;11.900;2023-04-24T00:51:37;95213.91;;;13.27;100.00
11621;BME280;5866;49.094;11.900;2023-04-24T00:54:04;95220.88;;;13.54;100.00
11621;BME280;5866;49.094;11.900;2023-04-24T00:56:32;95208.78;;;13.72;100.00
11621;BME280;5866;49.094;11.900;2023-04-24T00:59:00;95201.97;;;13.89;100.00
11621;BME280;5866;49.094;11.900;2023-04-24T01:01:29;95204.25;;;14.05;100.00
11621;BME280;5866;49.094;11.900;2023-04-24T01:03:57;95201.19;;;13.95;100.00
11621;BME280;5866;49.094;11.900;2023-04-24T01:06:27;95204.47;;;13.84;100.00
11621;BME280;5866;49.094;11.900;2023-04-24T01:08:55;95205.69;;;13.68;100.00
11621;BME280;5866;49.094;11.900;2023-04-24T01:11:22;95210.22;;;13.54;100.00
11621;BME280;5866;49.094;11.900;2023-04-24T01:13:51;95205.69;;;13.62;100.00
11621;BME280;5866;49.094;11.900;2023-04-24T01:16:19;95211.84;;;13.55;100.00
11621;BME280;5866;49.094;11.900;2023-04-24T01:18:48;95212.06;;;13.61;100.00
11621;BME280;5866;49.094;11.900;2023-04-24T01:21:16;95210.41;;;13.60;100.00
11621;BME280;5866;49.094;11.900;2023-04-24T01:23:46;95211.44;;;13.45;100.00
11621;BME280;5866;49.094;11.900;2023-04-24T01:26:15;95217.06;;;12.97;100.00
11621;BME280;5866;49.094;11.900;2023-04-24T01:28:43;95221.78;;;12.88;100.00
11621;BME280;5866;49.094;11.900;2023-04-24T01:31:11;95214.28;;;13.05;100.00
11621;BME280;5866;49.094;11.900;2023-04-24T01:33:39;95215.69;;;13.14;100.00
11621;BME280;5866;49.094;11.900;2023-04-24T01:36:07;95215.50;;;13.22;100.00
11621;BME280;5866;49.094;11.900;2023-04-24T01:38:35;95208.13;;;13.11;100.00
11621;BME280;5866;49.094;11.900;2023-04-24T01:41:04;95206.28;;;13.24;100.00
11621;BME280;5866;49.094;11.900;2023-04-24T01:43:32;95199.34;;;13.36;100.00
11621;BME280;5866;49.094;11.900;2023-04-24T01:45:59;95202.41;;;13.27;100.00
11621;BME280;5866;49.094;11.900;2023-04-24T01:48:27;95203.25;;;13.40;100.00
11621;BME280;5866;49.094;11.900;2023-04-24T01:50:55;95207.47;;;13.02;100.00
11621;BME280;5866;49.094;11.900;2023-04-24T01:53:23;95214.25;;;13.11;100.00
11621;BME280;5866;49.094;11.900;2023-04-24T01:55:51;95212.22;;;13.20;100.00
11621;BME280;5866;49.094;11.900;2023-04-24T01:58:20;95204.47;;;13.31;100.00
11621;BME280;5866;49.094;11.900;2023-04-24T02:00:48;95212.59;;;13.04;100.00
11621;BME280;5866;49.094;11.900;2023-04-24T02:03:15;95206.22;;;12.92;100.00
11621;BME280;5866;49.094;11.900;2023-04-24T02:05:43;95207.31;;;13.10;100.00
11621;BME280;5866;49.094;11.900;2023-04-24T02:08:11;95200.38;;;13.35;100.00
11621;BME280;5866;49.094;11.900;2023-04-24T02:10:39;95195.34;;;12.93;100.00
11621;BME280;5866;49.094;11.900;2023-04-24T02:13:06;95193.16;;;13.10;100.00
11621;BME280;5866;49.094;11.900;2023-04-24T02:15:35;95189.31;;;13.32;100.00
11621;BME280;5866;49.094;11.900;2023-04-24T02:18:03;95188.06;;;13.34;100.00
11621;BME280;5866;49.094;11.900;2023-04-24T02:20:30;95183.16;;;13.18;100.00
11621;BME280;5866;49.094;11.900;2023-04-24T02:23:00;95181.50;;;13.30;100.00
11621;BME280;5866;49.094;11.900;2023-04-24T02:25:27;95181.94;;;13.53;100.00
11621;BME280;5866;49.094;11.900;2023-04-24T02:27:55;95183.97;;;13.51;100.00
11621;BME280;5866;49.094;11.900;2023-04-24T02:30:22;95184.38;;;13.29;100.00
11621;BME280;5866;49.094;11.900;2023-04-24T02:32:51;95185.63;;;13.46;100.00
11621;BME280;5866;49.094;11.900;2023-04-24T02:35:19;95177.03;;;13.50;100.00
11621;BME280;5866;49.094;11.900;2023-04-24T02:37:46;95169.22;;;13.62;100.00
11621;BME280;5866;49.094;11.900;2023-04-24T02:40:14;95173.31;;;13.51;100.00
11621;BME280;5866;49.094;11.900;2023-04-24T02:42:41;95173.09;;;13.60;100.00
11621;BME280;5866;49.094;11.900;2023-04-24T02:45:10;95169.66;;;13.66;100.00
11621;BME280;5866;49.094;11.900;2023-04-24T02:47:37;95162.66;;;13.65;100.00
11621;BME280;5866;49.094;11.900;2023-04-24T02:50:07;95152.84;;;13.59;100.00
11621;BME280;5866;49.094;11.900;2023-04-24T02:52:35;95154.47;;;13.60;100.00
11621;BME280;5866;49.094;11.900;2023-04-24T02:55:03;95165.94;;;13.21;100.00
11621;BME280;5866;49.094;11.900;2023-04-24T02:57:31;95156.66;;;12.91;100.00
11621;BME280;5866;49.094;11.900;2023-04-24T02:59:58;95162.69;;;13.25;100.00
11621;BME280;5866;49.094;11.900;2023-04-24T03:02:26;95158.09;;;12.93;100.00
11621;BME280;5866;49.094;11.900;2023-04-24T03:04:54;95156.88;;;12.96;100.00
11621;BME280;5866;49.094;11.900;2023-04-24T03:07:24;95155.63;;;12.85;100.00
11621;BME280;5866;49.094;11.900;2023-04-24T03:09:52;95162.25;;;13.09;100.00
11621;BME280;5866;49.094;11.900;2023-04-24T03:12:19;95154.47;;;13.14;100.00
11621;BME280;5866;49.094;11.900;2023-04-24T03:14:47;95161.75;;;12.79;100.00
11621;BME280;5866;49.094;11.900;2023-04-24T03:17:14;95160.25;;;12.57;100.00
11621;BME280;5866;49.094;11.900;2023-04-24T03:19:42;95154.31;;;12.55;100.00
11621;BME280;5866;49.094;11.900;2023-04-24T03:22:10;95168.66;;;12.54;100.00
11621;BME280;5866;49.094;11.900;2023-04-24T03:24:39;95151.25;;;12.51;100.00
11621;BME280;5866;49.094;11.900;2023-04-24T03:27:07;95155.88;;;12.36;100.00
11621;BME280;5866;49.094;11.900;2023-04-24T03:29:35;95163.69;;;12.44;100.00
11621;BME280;5866;49.094;11.900;2023-04-24T03:32:02;95167.50;;;12.22;100.00
11621;BME280;5866;49.094;11.900;2023-04-24T03:34:30;95159.44;;;12.50;100.00
11621;BME280;5866;49.094;11.900;2023-04-24T03:36:57;95167.34;;;12.37;100.00
11621;BME280;5866;49.094;11.900;2023-04-24T03:39:25;95170.66;;;12.45;100.00
11621;BME280;5866;49.094;11.900;2023-04-24T03:41:54;95177.72;;;11.84;100.00
11621;BME280;5866;49.094;11.900;2023-04-24T03:44:22;95189.56;;;11.61;100.00
11621;BME280;5866;49.094;11.900;2023-04-24T03:46:49;95190.19;;;11.63;100.00
11621;BME280;5866;49.094;11.900;2023-04-24T03:49:17;95201.41;;;11.58;100.00
11621;BME280;5866;49.094;11.900;2023-04-24T03:51:44;95203.25;;;11.58;100.00
11621;BME280;5866;49.094;11.900;2023-04-24T03:54:12;95201.38;;;11.52;100.00
11621;BME280;5866;49.094;11.900;2023-04-24T03:56:40;95190.94;;;11.29;100.00
11621;BME280;5866;49.094;11.900;2023-04-24T03:59:08;95204.22;;;11.29;100.00
11621;BME280;5866;49.094;11.900;2023-04-24T04:01:36;95199.53;;;11.25;100.00
11621;BME280;5866;49.094;11.900;2023-04-24T04:04:04;95201.34;;;11.24;100.00
11621;BME280;5866;49.094;11.900;2023-04-24T04:06:32;95195.78;;;11.19;100.00
11621;BME280;5866;49.094;11.900;2023-04-24T04:09:00;95202.09;;;11.18;100.00
11621;BME280;5866;49.094;11.900;2023-04-24T04:11:27;95199.53;;;11.25;100.00
11621;BME280;5866;49.094;11.900;2023-04-24T04:13:54;95190.59;;;11.32;100.00
11621;BME280;5866;49.094;11.900;2023-04-24T04:16:24;95202.59;;;11.28;100.00
11621;BME280;5866;49.094;11.900;2023-04-24T04:18:51;95195.06;;;11.32;100.00
11621;BME280;5866;49.094;11.900;2023-04-24T04:21:19;95191.31;;;11.47;100.00
11621;BME280;5866;49.094;11.900;2023-04-24T04:23:46;95192.63;;;11.58;100.00
11621;BME280;5866;49.094;11.900;2023-04-24T04:26:14;95189.97;;;11.58;100.00
11621;BME280;5866;49.094;11.900;2023-04-24T04:28:41;95193.25;;;11.32;100.00
11621;BME280;5866;49.094;11.900;2023-04-24T04:31:11;95182.75;;;11.45;100.00
11621;BME280;5866;49.094;11.900;2023-04-24T04:33:40;95181.59;;;11.61;100.00
11621;BME280;5866;49.094;11.900;2023-04-24T04:36:08;95187.31;;;11.79;100.00
11621;BME280;5866;49.094;11.900;2023-04-24T04:38:35;95189.66;;;11.46;100.00
11621;BME280;5866;49.094;11.900;2023-04-24T04:41:03;95188.13;;;11.58;100.00
11621;BME280;5866;49.094;11.900;2023-04-24T04:43:30;95184.22;;;11.27;100.00
11621;BME280;5866;49.094;11.900;2023-04-24T04:45:58;95200.84;;;11.14;100.00
11621;BME280;5866;49.094;11.900;2023-04-24T04:48:27;95193.88;;;11.13;100.00
11621;BME280;5866;49.094;11.900;2023-04-24T04:50:56;95196.19;;;11.44;100.00
11621;BME280;5866;49.094;11.900;2023-04-24T04:53:23;95194.06;;;11.33;100.00
11621;BME280;5866;49.094;11.900;2023-04-24T04:55:52;95206.44;;;11.47;100.00
11621;BME280;5866;49.094;11.900;2023-04-24T04:58:19;95195.09;;;11.59;100.00
11621;BME280;5866;49.094;11.900;2023-04-24T05:00:47;95204.81;;;11.73;100.00
11621;BME280;5866;49.094;11.900;2023-04-24T05:03:14;95193.06;;;11.61;100.00
11621;BME280;5866;49.094;11.900;2023-04-24T05:05:47;95204.34;;;11.91;100.00
11621;BME280;5866;49.094;11.900;2023-04-24T05:08:15;95202.94;;;11.67;100.00
11621;BME280;5866;49.094;11.900;2023-04-24T05:10:52;95203.19;;;11.51;100.00
11621;BME280;5866;49.094;11.900;2023-04-24T05:13:20;95214.44;;;11.74;100.00
11621;BME280;5866;49.094;11.900;2023-04-24T05:16:04;95208.34;;;11.80;100.00
11621;BME280;5866;49.094;11.900;2023-04-24T05:18:31;95208.41;;;11.66;100.00
11621;BME280;5866;49.094;11.900;2023-04-24T05:20:59;95212.28;;;11.63;100.00
11621;BME280;5866;49.094;11.900;2023-04-24T05:23:29;95213.66;;;11.80;100.00
11621;BME280;5866;49.094;11.900;2023-04-24T05:25:56;95221.00;;;11.78;100.00
11621;BME280;5866;49.094;11.900;2023-04-24T05:28:24;95227.09;;;11.72;100.00
11621;BME280;5866;49.094;11.900;2023-04-24T05:30:54;95227.31;;;11.77;100.00
11621;BME280;5866;49.094;11.900;2023-04-24T05:33:22;95222.91;;;11.63;100.00
11621;BME280;5866;49.094;11.900;2023-04-24T05:35:50;95228.09;;;11.50;100.00
11621;BME280;5866;49.094;11.900;2023-04-24T05:38:18;95226.38;;;11.64;100.00
11621;BME280;5866;49.094;11.900;2023-04-24T05:40:47;95228.34;;;11.76;100.00
11621;BME280;5866;49.094;11.900;2023-04-24T05:43:15;95229.19;;;11.83;100.00
11621;BME280;5866;49.094;11.900;2023-04-24T05:45:42;95225.22;;;12.01;100.00
11621;BME280;5866;49.094;11.900;2023-04-24T05:48:10;95224.16;;;12.23;100.00
11621;BME280;5866;49.094;11.900;2023-04-24T05:50:37;95228.59;;;12.16;100.00
11621;BME280;5866;49.094;11.900;2023-04-24T05:53:05;95231.97;;;12.31;100.00
11621;BME280;5866;49.094;11.900;2023-04-24T05:55:33;95229.97;;;12.39;100.00
11621;BME280;5866;49.094;11.900;2023-04-24T05:58:02;95220.91;;;12.27;100.00
11621;BME280;5866;49.094;11.900;2023-04-24T06:00:30;95233.03;;;12.09;100.00
11621;BME280;5866;49.094;11.900;2023-04-24T06:02:57;95224.59;;;12.33;100.00
11621;BME280;5866;49.094;11.900;2023-04-24T06:05:25;95228.34;;;12.11;100.00
11621;BME280;5866;49.094;11.900;2023-04-24T06:07:53;95230.09;;;12.25;100.00
11621;BME280;5866;49.094;11.900;2023-04-24T06:10:21;95233.38;;;12.27;100.00
11621;BME280;5866;49.094;11.900;2023-04-24T06:12:48;95230.97;;;12.38;100.00
11621;BME280;5866;49.094;11.900;2023-04-24T06:15:17;95234.06;;;12.48;100.00
11621;BME280;5866;49.094;11.900;2023-04-24T06:17:46;95229.28;;;12.78;100.00
11621;BME280;5866;49.094;11.900;2023-04-24T06:20:13;95227.03;;;12.68;100.00
11621;BME280;5866;49.094;11.900;2023-04-24T06:22:41;95239.28;;;12.22;100.00
11621;BME280;5866;49.094;11.900;2023-04-24T06:25:08;95247.66;;;12.26;100.00
11621;BME280;5866;49.094;11.900;2023-04-24T06:27:36;95240.63;;;12.46;100.00
11621;BME280;5866;49.094;11.900;2023-04-24T06:30:04;95233.28;;;12.48;100.00
11621;BME280;5866;49.094;11.900;2023-04-24T06:32:33;95243.13;;;12.54;100.00
11621;BME280;5866;49.094;11.900;2023-04-24T06:35:01;95234.63;;;12.78;100.00
11621;BME280;5866;49.094;11.900;2023-04-24T06:37:28;95233.00;;;12.77;100.00
11621;BME280;5866;49.094;11.900;2023-04-24T06:39:56;95230.81;;;13.00;100.00
11621;BME280;5866;49.094;11.900;2023-04-24T06:42:24;95233.97;;;13.23;100.00
11621;BME280;5866;49.094;11.900;2023-04-24T06:44:51;95225.38;;;13.47;100.00
11621;BME280;5866;49.094;11.900;2023-04-24T06:47:19;95229.91;;;13.80;100.00
11621;BME280;5866;49.094;11.900;2023-04-24T06:49:47;95225.78;;;13.84;100.00
11621;BME280;5866;49.094;11.900;2023-04-24T06:52:17;95223.75;;;13.66;100.00
11621;BME280;5866;49.094;11.900;2023-04-24T06:54:44;95217.94;;;14.15;100.00
11621;BME280;5866;49.094;11.900;2023-04-24T06:57:12;95223.31;;;14.02;100.00
11621;BME280;5866;49.094;11.900;2023-04-24T06:59:39;95226.56;;;14.17;100.00
11621;BME280;5866;49.094;11.900;2023-04-24T07:02:07;95219.78;;;14.34;100.00
11621;BME280;5866;49.094;11.900;2023-04-24T07:04:35;95220.75;;;14.53;100.00
11621;BME280;5866;49.094;11.900;2023-04-24T07:07:04;95219.00;;;14.84;100.00
11621;BME280;5866;49.094;11.900;2023-04-24T07:09:33;95216.75;;;15.12;100.00
11621;BME280;5866;49.094;11.900;2023-04-24T07:12:04;95212.25;;;14.75;100.00
11621;BME280;5866;49.094;11.900;2023-04-24T07:14:32;95215.28;;;14.85;100.00
11621;BME280;5866;49.094;11.900;2023-04-24T07:16:59;95216.41;;;15.40;100.00
11621;BME280;5866;49.094;11.900;2023-04-24T07:19:27;95219.69;;;15.04;100.00
11621;BME280;5866;49.094;11.900;2023-04-24T07:21:55;95225.59;;;15.13;100.00
11621;BME280;5866;49.094;11.900;2023-04-24T07:24:25;95214.66;;;15.59;100.00
11621;BME280;5866;49.094;11.900;2023-04-24T07:26:56;95222.47;;;15.60;100.00
11621;BME280;5866;49.094;11.900;2023-04-24T07:29:23;95230.00;;;15.70;100.00
11621;BME280;5866;49.094;11.900;2023-04-24T07:31:51;95230.06;;;15.57;100.00
11621;BME280;5866;49.094;11.900;2023-04-24T07:34:20;95225.00;;;15.11;100.00
11621;BME280;5866;49.094;11.900;2023-04-24T07:36:48;95225.34;;;14.13;100.00
11621;BME280;5866;49.094;11.900;2023-04-24T07:39:15;95237.28;;;13.78;100.00
11621;BME280;5866;49.094;11.900;2023-04-24T07:41:44;95231.53;;;14.77;100.00
11621;BME280;5866;49.094;11.900;2023-04-24T07:44:11;95229.25;;;15.19;100.00
11621;BME280;5866;49.094;11.900;2023-04-24T07:46:39;95233.16;;;15.60;100.00
11621;BME280;5866;49.094;11.900;2023-04-24T07:49:07;95241.22;;;16.03;100.00
11621;BME280;5866;49.094;11.900;2023-04-24T07:51:39;95235.78;;;16.34;93.35
11621;BME280;5866;49.094;11.900;2023-04-24T07:54:08;95231.50;;;16.88;89.68
11621;BME280;5866;49.094;11.900;2023-04-24T07:56:35;95231.50;;;16.69;86.42
11621;BME280;5866;49.094;11.900;2023-04-24T07:59:06;95236.38;;;15.94;91.62
11621;BME280;5866;49.094;11.900;2023-04-24T08:01:34;95224.41;;;15.96;91.89
11621;BME280;5866;49.094;11.900;2023-04-24T08:04:01;95237.00;;;16.14;90.74
11621;BME280;5866;49.094;11.900;2023-04-24T08:06:29;95242.41;;;16.07;92.49
11621;BME280;5866;49.094;11.900;2023-04-24T08:08:58;95246.09;;;16.13;92.22
11621;BME280;5866;49.094;11.900;2023-04-24T08:11:27;95244.22;;;15.88;93.09
11621;BME280;5866;49.094;11.900;2023-04-24T08:13:54;95248.03;;;14.61;100.00
11621;BME280;5866;49.094;11.900;2023-04-24T08:16:23;95254.47;;;14.34;100.00
11621;BME280;5866;49.094;11.900;2023-04-24T08:18:51;95268.06;;;12.94;100.00
11621;BME280;5866;49.094;11.900;2023-04-24T08:21:18;95269.00;;;11.98;100.00
11621;BME280;5866;49.094;11.900;2023-04-24T08:23:47;95280.59;;;11.69;100.00
11621;BME280;5866;49.094;11.900;2023-04-24T08:26:14;95280.50;;;12.12;100.00
11621;BME280;5866;49.094;11.900;2023-04-24T08:28:42;95276.06;;;12.19;100.00
11621;BME280;5866;49.094;11.900;2023-04-24T08:31:09;95283.03;;;12.20;100.00
11621;BME280;5866;49.094;11.900;2023-04-24T08:33:38;95280.53;;;12.46;100.00
11621;BME280;5866;49.094;11.900;2023-04-24T08:36:07;95284.97;;;12.73;95.83
11621;BME280;5866;49.094;11.900;2023-04-24T08:38:34;95274.31;;;12.73;98.98
11621;BME280;5866;49.094;11.900;2023-04-24T08:41:02;95268.94;;;13.07;94.25
11621;BME280;5866;49.094;11.900;2023-04-24T08:43:32;95270.81;;;13.26;93.25
11621;BME280;5866;49.094;11.900;2023-04-24T08:46:00;95279.59;;;12.66;100.00
11621;BME280;5866;49.094;11.900;2023-04-24T08:48:34;95296.66;;;12.44;100.00
11621;BME280;5866;49.094;11.900;2023-04-24T08:51:08;95296.66;;;12.44;100.00
11621;BME280;5866;49.094;11.900;2023-04-24T08:53:37;95292.13;;;12.38;100.00
11621;BME280;5866;49.094;11.900;2023-04-24T08:56:05;95285.69;;;12.20;100.00
11621;BME280;5866;49.094;11.900;2023-04-24T08:58:33;95305.06;;;12.14;100.00
11621;BME280;5866;49.094;11.900;2023-04-24T09:01:01;95299.28;;;12.04;100.00
11621;BME280;5866;49.094;11.900;2023-04-24T09:03:29;95291.34;;;12.10;100.00
11621;BME280;5866;49.094;11.900;2023-04-24T09:05:58;95306.13;;;13.01;100.00
11621;BME280;5866;49.094;11.900;2023-04-24T09:08:29;95285.84;;;13.40;95.20
11621;BME280;5866;49.094;11.900;2023-04-24T09:10:58;95288.91;;;13.44;97.73
11621;BME280;5866;49.094;11.900;2023-04-24T09:13:28;95290.78;;;12.96;99.62
11621;BME280;5866;49.094;11.900;2023-04-24T09:15:56;95301.22;;;12.50;100.00
11621;BME280;5866;49.094;11.900;2023-04-24T09:18:25;95309.06;;;12.31;100.00
11621;BME280;5866;49.094;11.900;2023-04-24T09:21:01;95300.06;;;12.32;100.00
11621;BME280;5866;49.094;11.900;2023-04-24T09:23:31;95286.94;;;12.58;100.00
11621;BME280;5866;49.094;11.900;2023-04-24T09:26:00;95282.66;;;13.04;98.49
11621;BME280;5866;49.094;11.900;2023-04-24T09:28:30;95276.41;;;13.57;97.67
11621;BME280;5866;49.094;11.900;2023-04-24T09:31:06;95286.06;;;14.24;91.75
11621;BME280;5866;49.094;11.900;2023-04-24T09:33:34;95289.75;;;15.06;90.78
11621;BME280;5866;49.094;11.900;2023-04-24T09:36:02;95295.88;;;14.56;83.55
11621;BME280;5866;49.094;11.900;2023-04-24T09:38:33;95300.00;;;13.67;89.52
11621;BME280;5866;49.094;11.900;2023-04-24T09:41:02;95305.34;;;12.59;99.78
11621;BME280;5866;49.094;11.900;2023-04-24T09:43:30;95311.94;;;12.02;100.00
11621;BME280;5866;49.094;11.900;2023-04-24T09:45:59;95309.41;;;11.93;100.00
11621;BME280;5866;49.094;11.900;2023-04-24T09:48:31;95319.91;;;11.59;100.00
11621;BME280;5866;49.094;11.900;2023-04-24T09:51:00;95325.13;;;11.67;100.00
11621;BME280;5866;49.094;11.900;2023-04-24T09:53:28;95321.97;;;11.78;100.00
11621;BME280;5866;49.094;11.900;2023-04-24T09:56:02;95325.34;;;12.15;100.00
11621;BME280;5866;49.094;11.900;2023-04-24T09:58:29;95329.59;;;11.88;100.00
11621;BME280;5866;49.094;11.900;2023-04-24T10:00:57;95328.78;;;12.43;100.00
11621;BME280;5866;49.094;11.900;2023-04-24T10:03:25;95337.06;;;12.61;100.00
11621;BME280;5866;49.094;11.900;2023-04-24T10:05:58;95338.88;;;12.88;100.00
11621;BME280;5866;49.094;11.900;2023-04-24T10:08:26;95322.50;;;12.91;99.04
11621;BME280;5866;49.094;11.900;2023-04-24T10:11:01;95337.53;;;13.05;94.48
11621;BME280;5866;49.094;11.900;2023-04-24T10:13:29;95341.69;;;12.80;93.87
11621;BME280;5866;49.094;11.900;2023-04-24T10:15:58;95336.84;;;12.97;92.47
11621;BME280;5866;49.094;11.900;2023-04-24T10:18:28;95334.56;;;13.28;78.96
11621;BME280;5866;49.094;11.900;2023-04-24T10:20:56;95341.00;;;13.73;76.23
11621;BME280;5866;49.094;11.900;2023-04-24T10:23:25;95330.91;;;13.48;77.28
11621;BME280;5866;49.094;11.900;2023-04-24T10:25:52;95334.41;;;13.55;76.98
11621;BME280;5866;49.094;11.900;2023-04-24T10:28:24;95335.03;;;13.57;80.41
11621;BME280;5866;49.094;11.900;2023-04-24T10:30:53;95343.84;;;13.65;79.70
11621;BME280;5866;49.094;11.900;2023-04-24T10:33:22;95332.84;;;14.00;80.84
11621;BME280;5866;49.094;11.900;2023-04-24T10:35:50;95335.63;;;13.46;84.14
11621;BME280;5866;49.094;11.900;2023-04-24T10:38:22;95340.59;;;13.89;80.05
11621;BME280;5866;49.094;11.900;2023-04-24T10:40:57;95342.66;;;13.80;77.80
11621;BME280;5866;49.094;11.900;2023-04-24T10:43:26;95331.22;;;14.45;70.23
11621;BME280;5866;49.094;11.900;2023-04-24T10:46:00;95329.56;;;14.38;71.80
11621;BME280;5866;49.094;11.900;2023-04-24T10:48:29;95329.75;;;14.49;69.74
11621;BME280;5866;49.094;11.900;2023-04-24T10:50:57;95336.75;;;14.37;66.92
11621;BME280;5866;49.094;11.900;2023-04-24T10:53:28;95319.81;;;13.38;70.29
11621;BME280;5866;49.094;11.900;2023-04-24T10:56:02;95330.22;;;13.20;73.15
11621;BME280;5866;49.094;11.900;2023-04-24T10:58:39;95334.28;;;14.09;68.21
11621;BME280;5866;49.094;11.900;2023-04-24T11:01:07;95333.63;;;13.81;69.72
11621;BME280;5866;49.094;11.900;2023-04-24T11:03:35;95321.34;;;14.13;70.61
11621;BME280;5866;49.094;11.900;2023-04-24T11:06:05;95336.88;;;13.57;68.93
11621;BME280;5866;49.094;11.900;2023-04-24T11:08:39;95342.06;;;13.05;77.08
11621;BME280;5866;49.094;11.900;2023-04-24T11:11:11;95352.72;;;12.77;80.46
11621;BME280;5866;49.094;11.900;2023-04-24T11:14:02;95351.28;;;12.74;81.38
11621;BME280;5866;49.094;11.900;2023-04-24T11:16:32;95357.16;;;12.36;82.74
11621;BME280;5866;49.094;11.900;2023-04-24T11:19:02;95363.13;;;11.68;95.53
11621;BME280;5866;49.094;11.900;2023-04-24T11:21:40;95365.06;;;10.88;100.00
11621;BME280;5866;49.094;11.900;2023-04-24T11:24:29;95385.00;;;10.84;100.00
11621;BME280;5866;49.094;11.900;2023-04-24T11:26:59;95368.59;;;11.09;100.00
11621;BME280;5866;49.094;11.900;2023-04-24T11:29:43;95379.78;;;11.98;100.00
11621;BME280;5866;49.094;11.900;2023-04-24T11:32:28;95382.88;;;12.01;100.00
11621;BME280;5866;49.094;11.900;2023-04-24T11:34:57;95379.09;;;12.44;93.69
11621;BME280;5866;49.094;11.900;2023-04-24T11:37:26;95382.91;;;12.97;89.87
11621;BME280;5866;49.094;11.900;2023-04-24T11:39:56;95374.13;;;13.37;81.72
11621;BME280;5866;49.094;11.900;2023-04-24T11:42:24;95368.69;;;13.72;82.50
11621;BME280;5866;49.094;11.900;2023-04-24T11:44:54;95351.66;;;14.71;78.21
11621;BME280;5866;49.094;11.900;2023-04-24T11:47:29;95356.16;;;15.54;72.08
11621;BME280;5866;49.094;11.900;2023-04-24T11:49:57;95348.25;;;15.65;69.81
11621;BME280;5866;49.094;11.900;2023-04-24T11:52:26;95344.94;;;16.01;69.44
11621;BME280;5866;49.094;11.900;2023-04-24T11:54:54;95346.16;;;16.05;60.10
11621;BME280;5866;49.094;11.900;2023-04-24T11:57:24;95352.50;;;14.58;69.72
11621;BME280;5866;49.094;11.900;2023-04-24T11:59:55;95363.97;;;13.87;70.77
11621;BME280;5866;49.094;11.900;2023-04-24T12:02:23;95359.91;;;14.56;70.42
11621;BME280;5866;49.094;11.900;2023-04-24T12:04:51;95351.50;;;14.66;68.31
11621;BME280;5866;49.094;11.900;2023-04-24T12:07:20;95349.56;;;14.92;67.68
11621;BME280;5866;49.094;11.900;2023-04-24T12:09:49;95352.00;;;15.07;60.37
11621;BME280;5866;49.094;11.900;2023-04-24T12:12:18;95353.56;;;14.44;65.25
11621;BME280;5866;49.094;11.900;2023-04-24T12:14:52;95351.06;;;14.75;62.21
11621;BME280;5866;49.094;11.900;2023-04-24T12:17:25;95344.94;;;14.42;60.75
11621;BME280;5866;49.094;11.900;2023-04-24T12:19:57;95349.69;;;14.47;62.11
11621;BME280;5866;49.094;11.900;2023-04-24T12:22:25;95352.94;;;14.49;62.98
11621;BME280;5866;49.094;11.900;2023-04-24T12:25:00;95341.09;;;15.08;58.43
11621;BME280;5866;49.094;11.900;2023-04-24T12:27:30;95345.31;;;15.29;58.40
11621;BME280;5866;49.094;11.900;2023-04-24T12:29:59;95354.97;;;15.81;60.58
11621;BME280;5866;49.094;11.900;2023-04-24T12:32:27;95349.66;;;16.30;57.01
11621;BME280;5866;49.094;11.900;2023-04-24T12:34:56;95350.25;;;17.00;57.54
11621;BME280;5866;49.094;11.900;2023-04-24T12:37:24;95356.06;;;16.54;56.00
11621;BME280;5866;49.094;11.900;2023-04-24T12:40:03;95349.63;;;14.20;52.41
11621;BME280;5866;49.094;11.900;2023-04-24T12:42:32;95352.09;;;13.70;53.39
11621;BME280;5866;49.094;11.900;2023-04-24T12:45:02;95356.88;;;13.27;53.94
11621;BME280;5866;49.094;11.900;2023-04-24T12:47:32;95359.00;;;13.44;56.17
11621;BME280;5866;49.094;11.900;2023-04-24T12:50:00;95376.94;;;13.23;58.09
11621;BME280;5866;49.094;11.900;2023-04-24T12:52:29;95383.91;;;13.30;60.07
11621;BME280;5866;49.094;11.900;2023-04-24T12:54:58;95391.41;;;12.73;60.69
11621;BME280;5866;49.094;11.900;2023-04-24T12:57:27;95397.31;;;12.41;63.95
11621;BME280;5866;49.094;11.900;2023-04-24T12:59:56;95400.63;;;12.22;62.52
11621;BME280;5866;49.094;11.900;2023-04-24T13:02:24;95400.53;;;12.36;63.07